Time;durP1;ratioP1;P1;durP2;ratioP2;P2;SDS_P1;SDS_P2;PMS_P1;PMS_P2;Temp;Humidity;BMP_temperature;BMP_pressure;BME280_temperature;BME280_humidity;BME280_pressure;Samples;Min_cycle;Max_cycle;Signal;HPM_P1;HPM_P2
2023/05/04 00:02:03;;;;;;;10.30;5.60;;;7.40;99.90;;;;;;5114544;28;20144;-67
2023/05/04 00:04:29;;;;;;;11.40;5.43;;;7.40;99.90;;;;;;5115879;28;20558;-67
2023/05/04 00:06:54;;;;;;;8.25;4.72;;;7.40;99.90;;;;;;5115445;28;20063;-67
2023/05/04 00:09:20;;;;;;;13.25;5.80;;;7.40;99.90;;;;;;5115691;28;20472;-67
2023/05/04 00:11:45;;;;;;;9.93;4.80;;;7.30;99.90;;;;;;5114354;28;20414;-67
2023/05/04 00:14:11;;;;;;;8.43;4.45;;;7.30;99.90;;;;;;5115745;28;20046;-67
2023/05/04 00:16:36;;;;;;;8.88;4.10;;;7.30;99.90;;;;;;5115372;28;20043;-67
2023/05/04 00:19:02;;;;;;;9.85;5.20;;;7.30;99.90;;;;;;5115633;28;20100;-67
2023/05/04 00:21:28;;;;;;;7.95;4.43;;;7.30;99.90;;;;;;5115554;28;20518;-67
2023/05/04 00:23:53;;;;;;;11.38;4.97;;;7.30;99.90;;;;;;5115315;28;20415;-67
2023/05/04 00:26:19;;;;;;;9.88;4.28;;;7.30;99.90;;;;;;5115450;28;20049;-67
2023/05/04 00:28:44;;;;;;;16.15;5.85;;;7.20;99.90;;;;;;5115344;28;20039;-67
2023/05/04 00:31:10;;;;;;;8.88;5.50;;;7.20;99.90;;;;;;5115469;28;20039;-67
2023/05/04 00:33:35;;;;;;;9.73;4.65;;;7.30;99.90;;;;;;5115258;28;20040;-67
2023/05/04 00:36:04;;;;;;;10.52;4.93;;;7.20;99.90;;;;;;5115117;28;20040;-67
2023/05/04 00:38:29;;;;;;;8.60;4.70;;;7.20;99.90;;;;;;5115034;28;20032;-67
2023/05/04 00:40:57;;;;;;;7.95;4.47;;;7.20;99.90;;;;;;5115147;28;20080;-67
2023/05/04 00:43:24;;;;;;;7.45;4.00;;;7.20;99.90;;;;;;5115014;28;20051;-67
2023/05/04 00:45:50;;;;;;;7.28;4.20;;;7.10;99.90;;;;;;5114995;28;20046;-67
2023/05/04 00:48:15;;;;;;;8.70;4.32;;;7.20;99.90;;;;;;5113789;28;20115;-67
2023/05/04 00:50:41;;;;;;;14.98;5.07;;;7.20;99.90;;;;;;5114947;28;20063;-67
2023/05/04 00:53:09;;;;;;;11.82;4.60;;;7.10;99.90;;;;;;5115101;28;20046;-68
2023/05/04 00:55:37;;;;;;;8.95;5.07;;;7.10;99.90;;;;;;5114996;28;20035;-67
2023/05/04 00:58:04;;;;;;;7.07;4.25;;;7.10;99.90;;;;;;5114881;28;20054;-67
2023/05/04 01:00:30;;;;;;;15.02;6.22;;;7.10;99.90;;;;;;5114079;28;20570;-67
2023/05/04 01:02:56;;;;;;;7.85;5.35;;;7.10;99.90;;;;;;5113504;28;20131;-67
2023/05/04 01:05:24;;;;;;;7.57;5.07;;;7.10;99.90;;;;;;5114565;28;20054;-67
2023/05/04 01:08:18;;;;;;;8.65;4.82;;;7.10;99.90;;;;;;5114706;28;20122;-68
2023/05/04 01:10:55;;;;;;;9.23;4.85;;;7.10;99.90;;;;;;5114837;28;20036;-68
2023/05/04 01:13:21;;;;;;;12.13;6.35;;;7.10;99.90;;;;;;5114491;28;20043;-68
2023/05/04 01:15:48;;;;;;;10.60;4.97;;;7.10;99.90;;;;;;5114374;28;20036;-68
2023/05/04 01:18:13;;;;;;;7.30;4.90;;;7.00;99.90;;;;;;5114247;28;20039;-68
2023/05/04 01:20:39;;;;;;;14.75;6.00;;;7.00;99.90;;;;;;5113094;28;20036;-67
2023/05/04 01:23:05;;;;;;;13.68;6.15;;;7.00;99.90;;;;;;5114264;28;20380;-68
2023/05/04 01:25:44;;;;;;;9.85;5.03;;;7.00;99.90;;;;;;5114364;28;20035;-67
2023/05/04 01:28:23;;;;;;;14.75;5.82;;;7.00;99.90;;;;;;5112983;28;20096;-68
2023/05/04 01:30:52;;;;;;;8.63;5.28;;;7.00;99.90;;;;;;5114226;28;20495;-68
2023/05/04 01:33:19;;;;;;;10.77;6.18;;;6.90;99.90;;;;;;5114223;28;20031;-68
2023/05/04 01:35:45;;;;;;;10.43;6.05;;;7.00;99.90;;;;;;5114057;28;20039;-68
2023/05/04 01:38:10;;;;;;;13.00;5.43;;;7.00;99.90;;;;;;5113922;28;20177;-68
2023/05/04 01:40:36;;;;;;;14.15;6.22;;;6.90;99.90;;;;;;5114086;28;20032;-67
2023/05/04 01:43:01;;;;;;;13.38;6.13;;;6.90;99.90;;;;;;5113636;28;20039;-68
2023/05/04 01:45:27;;;;;;;11.05;6.45;;;7.00;99.90;;;;;;5112524;28;20046;-67
2023/05/04 01:47:52;;;;;;;13.32;5.65;;;6.90;99.90;;;;;;5113779;28;20042;-67
2023/05/04 01:50:18;;;;;;;14.00;6.13;;;6.90;99.90;;;;;;5113961;28;20491;-67
2023/05/04 01:52:43;;;;;;;12.30;6.55;;;6.90;99.90;;;;;;5113598;28;20523;-68
2023/05/04 01:55:09;;;;;;;12.50;6.57;;;6.90;99.90;;;;;;5113645;28;20051;-68
2023/05/04 01:57:34;;;;;;;14.63;7.07;;;6.90;99.90;;;;;;5113515;28;20035;-67
2023/05/04 02:00:00;;;;;;;12.80;6.90;;;6.90;99.90;;;;;;5114002;28;20538;-67
2023/05/04 02:02:26;;;;;;;11.68;7.47;;;6.90;99.90;;;;;;5113417;28;20460;-67
2023/05/04 02:04:51;;;;;;;11.57;6.72;;;6.90;99.90;;;;;;5113516;28;20039;-67
2023/05/04 02:07:17;;;;;;;11.18;6.25;;;6.90;99.90;;;;;;5113382;28;20047;-67
2023/05/04 02:09:42;;;;;;;11.50;6.18;;;6.80;99.90;;;;;;5113518;28;20384;-67
2023/05/04 02:12:08;;;;;;;11.85;6.95;;;6.90;99.90;;;;;;5112667;28;20383;-67
2023/05/04 02:14:33;;;;;;;10.10;7.13;;;6.80;99.90;;;;;;5113179;28;20067;-67
2023/05/04 02:16:59;;;;;;;15.45;6.95;;;6.90;99.90;;;;;;5113194;28;20043;-67
2023/05/04 02:19:24;;;;;;;12.00;6.50;;;6.90;99.90;;;;;;5113268;28;20455;-67
2023/05/04 02:21:51;;;;;;;11.82;7.05;;;6.90;99.90;;;;;;5113267;28;20042;-67
2023/05/04 02:24:16;;;;;;;13.02;7.97;;;6.80;99.90;;;;;;5109453;28;20133;-68
2023/05/04 02:26:42;;;;;;;22.08;8.23;;;6.80;99.90;;;;;;5107653;28;20060;-67
2023/05/04 02:29:07;;;;;;;13.98;7.63;;;6.90;99.90;;;;;;5109778;28;20036;-67
2023/05/04 02:31:33;;;;;;;10.95;7.20;;;6.90;99.90;;;;;;5111574;28;20036;-67
2023/05/04 02:33:59;;;;;;;15.48;7.03;;;6.80;99.90;;;;;;5111714;28;20047;-67
2023/05/04 02:36:25;;;;;;;11.65;7.03;;;6.90;99.90;;;;;;5112873;28;20074;-67
2023/05/04 02:38:50;;;;;;;15.18;7.88;;;6.80;99.90;;;;;;5112901;28;20122;-67
2023/05/04 02:41:16;;;;;;;16.05;6.97;;;6.90;99.90;;;;;;5112747;28;20061;-67
2023/05/04 02:43:41;;;;;;;12.70;7.30;;;6.90;99.90;;;;;;5112633;28;20467;-67
2023/05/04 02:46:07;;;;;;;11.98;7.28;;;6.80;99.90;;;;;;5112678;28;20104;-67
2023/05/04 02:48:33;;;;;;;10.45;6.72;;;6.80;99.90;;;;;;5112696;28;20036;-67
2023/05/04 02:50:58;;;;;;;11.70;7.10;;;6.80;99.90;;;;;;5112761;28;20100;-67
2023/05/04 02:53:24;;;;;;;12.45;7.43;;;6.80;99.90;;;;;;5112463;28;20075;-67
2023/05/04 02:55:49;;;;;;;15.82;6.93;;;6.80;99.90;;;;;;5111150;28;20035;-67
2023/05/04 02:58:15;;;;;;;16.30;7.32;;;6.80;99.90;;;;;;5112486;28;20035;-67
2023/05/04 03:00:41;;;;;;;12.25;7.38;;;6.80;99.90;;;;;;5112462;28;20091;-67
2023/05/04 03:03:06;;;;;;;13.93;7.47;;;6.80;99.90;;;;;;5112591;28;20396;-67
2023/05/04 03:05:32;;;;;;;12.68;6.70;;;6.80;99.90;;;;;;5112447;28;20032;-67
2023/05/04 03:07:57;;;;;;;14.85;6.70;;;6.80;99.90;;;;;;5112133;28;20403;-67
2023/05/04 03:10:23;;;;;;;15.43;8.55;;;6.80;99.90;;;;;;5112216;28;20047;-67
2023/05/04 03:12:49;;;;;;;13.88;7.53;;;6.80;99.90;;;;;;5106263;28;20036;-67
2023/05/04 03:15:15;;;;;;;11.52;5.93;;;6.80;99.90;;;;;;5109748;28;20051;-67
2023/05/04 03:17:42;;;;;;;12.50;6.65;;;6.80;99.90;;;;;;5112178;28;20096;-67
2023/05/04 03:20:11;;;;;;;11.73;6.88;;;6.70;99.90;;;;;;5112263;28;20510;-67
2023/05/04 03:22:37;;;;;;;13.10;6.72;;;6.80;99.90;;;;;;5112185;28;20043;-68
2023/05/04 03:25:02;;;;;;;13.48;7.43;;;6.80;99.90;;;;;;5111718;28;20047;-68
2023/05/04 03:27:28;;;;;;;13.35;7.50;;;6.80;99.90;;;;;;5110582;28;20403;-68
2023/05/04 03:29:53;;;;;;;10.60;6.15;;;6.80;99.90;;;;;;5111119;28;20475;-67
2023/05/04 03:32:19;;;;;;;11.98;6.75;;;6.80;99.90;;;;;;5112120;28;20526;-67
2023/05/04 03:34:45;;;;;;;13.00;6.50;;;6.80;99.90;;;;;;5112134;28;20086;-67
2023/05/04 03:37:11;;;;;;;14.02;6.85;;;6.80;99.90;;;;;;5111762;28;20054;-67
2023/05/04 03:39:36;;;;;;;18.35;6.65;;;6.70;99.90;;;;;;5110710;28;20119;-68
2023/05/04 03:42:03;;;;;;;12.75;6.10;;;6.70;99.90;;;;;;5110593;28;20467;-68
2023/05/04 03:44:29;;;;;;;11.38;6.60;;;6.80;99.90;;;;;;5112011;28;20423;-68
2023/05/04 03:46:54;;;;;;;10.23;6.55;;;6.80;99.90;;;;;;5110442;28;20036;-68
2023/05/04 03:49:20;;;;;;;11.05;6.22;;;6.80;99.90;;;;;;5110636;28;20043;-68
2023/05/04 03:51:46;;;;;;;15.38;6.93;;;6.80;99.90;;;;;;5110477;28;20036;-68
2023/05/04 03:54:11;;;;;;;15.18;6.22;;;6.80;99.90;;;;;;5110719;28;20035;-67
2023/05/04 03:56:37;;;;;;;11.05;6.50;;;6.70;99.90;;;;;;5110349;28;20043;-68
2023/05/04 03:59:02;;;;;;;11.07;7.03;;;6.80;99.90;;;;;;5111766;28;20114;-67
2023/05/04 04:01:28;;;;;;;12.20;7.40;;;6.70;99.90;;;;;;5111791;28;20112;-68
2023/05/04 04:03:54;;;;;;;12.88;6.25;;;6.80;99.90;;;;;;5110338;28;20241;-69
2023/05/04 04:06:20;;;;;;;15.25;8.65;;;6.70;99.90;;;;;;5111547;28;20039;-69
2023/05/04 04:08:45;;;;;;;11.35;5.95;;;6.70;99.90;;;;;;5110597;28;20126;-68
2023/05/04 04:11:11;;;;;;;12.52;7.22;;;6.80;99.90;;;;;;5111140;28;20114;-68
2023/05/04 04:13:36;;;;;;;13.73;7.10;;;6.80;99.90;;;;;;5111803;28;20123;-68
2023/05/04 04:16:02;;;;;;;11.38;6.20;;;6.80;99.90;;;;;;5110243;28;20401;-68
2023/05/04 04:18:27;;;;;;;11.70;6.20;;;6.80;99.90;;;;;;5111685;28;20039;-68
2023/05/04 04:20:53;;;;;;;13.82;6.30;;;6.80;99.90;;;;;;5111728;28;20042;-69
2023/05/04 04:23:19;;;;;;;16.55;5.65;;;6.70;99.90;;;;;;5111527;28;20067;-69
2023/05/04 04:25:45;;;;;;;11.75;6.05;;;6.70;99.90;;;;;;5111437;28;20035;-69
2023/05/04 04:28:12;;;;;;;18.60;6.60;;;6.70;99.90;;;;;;5111539;28;20090;-69
2023/05/04 04:30:37;;;;;;;11.45;6.10;;;6.70;99.90;;;;;;5110338;28;20643;-70
2023/05/04 04:33:03;;;;;;;16.92;6.28;;;6.70;99.90;;;;;;5111552;28;20032;-70
2023/05/04 04:35:31;;;;;;;11.40;5.55;;;6.70;99.90;;;;;;5111546;28;20065;-69
2023/05/04 04:37:57;;;;;;;13.73;6.00;;;6.70;99.90;;;;;;5113785;28;20039;-70
2023/05/04 04:40:22;;;;;;;11.77;6.78;;;6.70;99.90;;;;;;5113892;28;20479;-68
2023/05/04 04:42:48;;;;;;;12.55;6.22;;;6.80;99.90;;;;;;5114952;28;20054;-68
2023/05/04 04:45:14;;;;;;;10.02;5.70;;;6.70;99.90;;;;;;5113672;28;20032;-68
2023/05/04 04:47:40;;;;;;;10.48;5.40;;;6.70;99.90;;;;;;5114718;28;20532;-67
2023/05/04 04:50:06;;;;;;;12.65;6.13;;;6.70;99.90;;;;;;5113647;28;20055;-68
2023/05/04 04:52:33;;;;;;;11.00;5.88;;;6.70;99.90;;;;;;5114791;28;20040;-67
2023/05/04 04:54:59;;;;;;;11.38;5.68;;;6.70;99.90;;;;;;5114893;28;20070;-68
2023/05/04 04:57:25;;;;;;;13.52;6.18;;;6.80;99.90;;;;;;5114836;28;20051;-68
2023/05/04 04:59:52;;;;;;;13.23;5.72;;;6.80;99.90;;;;;;5114780;28;20483;-68
2023/05/04 05:02:18;;;;;;;14.57;6.18;;;6.80;99.90;;;;;;5114764;28;20065;-68
2023/05/04 05:04:45;;;;;;;11.85;5.78;;;6.90;99.90;;;;;;5114768;28;20092;-67
2023/05/04 05:07:10;;;;;;;12.85;5.97;;;6.80;99.90;;;;;;5114233;28;20078;-68
2023/05/04 05:09:36;;;;;;;12.90;5.97;;;6.80;99.90;;;;;;5114819;27;20039;-68
2023/05/04 05:12:03;;;;;;;10.50;5.82;;;6.90;99.90;;;;;;5114530;28;20043;-68
2023/05/04 05:14:30;;;;;;;13.48;7.43;;;6.90;99.90;;;;;;5114452;28;20118;-67
2023/05/04 05:16:56;;;;;;;11.18;6.22;;;6.90;99.90;;;;;;5113015;28;20039;-68
2023/05/04 05:19:22;;;;;;;12.93;6.72;;;7.00;99.90;;;;;;5113074;28;20103;-67
2023/05/04 05:21:48;;;;;;;11.75;6.00;;;7.00;99.90;;;;;;5114221;28;20039;-68
2023/05/04 05:24:13;;;;;;;14.43;6.88;;;7.00;99.90;;;;;;5114570;27;20410;-70
2023/05/04 05:26:39;;;;;;;14.95;6.63;;;7.00;99.90;;;;;;5114151;28;20028;-69
2023/05/04 05:29:05;;;;;;;11.02;6.15;;;7.10;99.90;;;;;;5114370;28;20071;-68
2023/05/04 05:31:31;;;;;;;8.27;4.75;;;7.20;99.90;;;;;;5114308;28;20148;-70
2023/05/04 05:33:57;;;;;;;11.80;6.38;;;7.20;99.90;;;;;;5114214;28;20035;-69
2023/05/04 05:36:22;;;;;;;11.63;6.50;;;7.20;99.90;;;;;;5112905;28;20054;-70
2023/05/04 05:38:48;;;;;;;10.68;6.03;;;7.20;99.90;;;;;;5114094;28;20055;-70
2023/05/04 05:41:14;;;;;;;10.90;6.18;;;7.20;99.90;;;;;;5114139;27;20043;-69
2023/05/04 05:43:40;;;;;;;13.80;5.72;;;7.30;99.90;;;;;;5113778;28;20122;-70
2023/05/04 05:46:05;;;;;;;14.63;5.80;;;7.40;99.90;;;;;;5113878;28;20092;-70
2023/05/04 05:48:31;;;;;;;13.80;6.60;;;7.30;99.90;;;;;;5113508;28;20035;-70
2023/05/04 05:50:57;;;;;;;18.33;6.03;;;7.40;99.90;;;;;;5113817;28;20118;-69
2023/05/04 05:53:22;;;;;;;9.88;5.55;;;7.50;99.90;;;;;;5113911;28;20032;-69
2023/05/04 05:55:48;;;;;;;15.43;5.68;;;7.60;99.90;;;;;;5113842;28;20459;-69
2023/05/04 05:58:13;;;;;;;13.98;5.85;;;7.70;99.90;;;;;;5112244;28;20145;-69
2023/05/04 06:00:39;;;;;;;11.52;6.35;;;7.90;99.90;;;;;;5113825;28;20054;-69
2023/05/04 06:03:04;;;;;;;12.88;6.32;;;7.90;99.90;;;;;;5113463;28;20039;-69
2023/05/04 06:05:32;;;;;;;12.27;6.90;;;8.00;99.90;;;;;;5113383;28;20040;-69
2023/05/04 06:07:58;;;;;;;14.43;6.25;;;8.10;99.90;;;;;;5113436;28;20114;-69
2023/05/04 06:10:23;;;;;;;11.15;5.95;;;8.10;99.90;;;;;;5113640;28;20124;-69
2023/05/04 06:12:49;;;;;;;13.30;5.85;;;8.10;99.90;;;;;;5113408;28;20506;-69
2023/05/04 06:15:15;;;;;;;13.15;6.20;;;8.30;99.90;;;;;;5113339;28;20035;-70
2023/05/04 06:17:41;;;;;;;12.55;5.40;;;8.40;99.90;;;;;;5112023;28;20043;-72
2023/05/04 06:20:07;;;;;;;12.55;5.20;;;8.60;99.90;;;;;;5113207;28;20040;-70
2023/05/04 06:22:33;;;;;;;13.68;6.55;;;8.70;99.90;;;;;;5113375;28;20045;-70
2023/05/04 06:24:58;;;;;;;11.02;5.68;;;8.80;99.90;;;;;;5113132;28;20039;-70
2023/05/04 06:27:24;;;;;;;12.25;6.20;;;9.00;99.90;;;;;;5112885;28;20040;-70
2023/05/04 06:29:50;;;;;;;10.02;6.05;;;9.20;99.90;;;;;;5113095;28;20495;-70
2023/05/04 06:32:16;;;;;;;9.15;5.82;;;9.30;99.90;;;;;;5113022;28;20084;-69
2023/05/04 06:34:41;;;;;;;12.90;5.95;;;9.50;99.90;;;;;;5112874;28;20504;-68
2023/05/04 06:37:07;;;;;;;11.35;6.00;;;9.60;99.90;;;;;;5112876;28;20599;-68
2023/05/04 06:39:33;;;;;;;12.50;6.45;;;9.60;99.90;;;;;;5112879;28;20039;-69
2023/05/04 06:41:58;;;;;;;10.93;6.03;;;9.70;99.90;;;;;;5111385;28;20047;-69
2023/05/04 06:44:24;;;;;;;15.18;5.90;;;9.70;99.90;;;;;;5111541;28;20081;-69
2023/05/04 06:46:50;;;;;;;17.55;6.22;;;9.70;99.90;;;;;;5112461;28;20047;-71
2023/05/04 06:49:16;;;;;;;10.68;5.80;;;9.80;99.90;;;;;;5111457;28;20077;-69
2023/05/04 06:51:42;;;;;;;14.45;6.50;;;9.70;99.90;;;;;;5112851;28;20384;-69
2023/05/04 06:54:08;;;;;;;9.88;6.10;;;9.90;99.90;;;;;;5108635;28;20031;-70
2023/05/04 06:56:33;;;;;;;10.32;5.93;;;9.90;99.90;;;;;;5107346;28;20578;-69
2023/05/04 06:58:59;;;;;;;12.88;6.03;;;10.10;99.90;;;;;;5110751;28;20039;-69
2023/05/04 07:01:25;;;;;;;10.02;5.82;;;10.20;99.90;;;;;;5111319;28;20123;-69
2023/05/04 07:03:50;;;;;;;14.00;6.00;;;10.20;99.90;;;;;;5111054;28;20491;-70
2023/05/04 07:06:16;;;;;;;11.23;7.53;;;10.30;99.90;;;;;;5111995;28;20039;-69
2023/05/04 07:08:41;;;;;;;18.60;6.40;;;10.40;99.90;;;;;;5102033;28;20462;-70
2023/05/04 07:11:08;;;;;;;11.10;5.47;;;10.40;99.90;;;;;;5102360;28;20377;-69
2023/05/04 07:13:33;;;;;;;13.70;5.85;;;10.40;99.90;;;;;;5100635;28;20032;-69
2023/05/04 07:15:59;;;;;;;13.95;6.47;;;10.70;99.90;;;;;;5109219;28;20042;-69
2023/05/04 07:18:24;;;;;;;10.93;5.93;;;10.80;99.90;;;;;;5112048;28;20040;-69
2023/05/04 07:20:50;;;;;;;8.88;5.50;;;11.00;99.90;;;;;;5112427;28;20039;-69
2023/05/04 07:23:16;;;;;;;9.05;5.75;;;11.10;99.90;;;;;;5112201;28;20031;-69
2023/05/04 07:25:42;;;;;;;8.90;5.10;;;11.30;99.90;;;;;;5112100;28;20047;-69
2023/05/04 07:28:08;;;;;;;11.05;5.65;;;11.50;99.90;;;;;;5102287;28;20031;-69
2023/05/04 07:30:33;;;;;;;9.52;5.28;;;11.70;99.90;;;;;;5101158;28;20036;-70
2023/05/04 07:32:59;;;;;;;11.10;5.07;;;11.80;99.90;;;;;;5098214;28;20551;-70
2023/05/04 07:35:25;;;;;;;11.20;5.50;;;12.00;99.90;;;;;;5111864;28;20085;-69
2023/05/04 07:37:51;;;;;;;11.63;5.22;;;12.10;99.90;;;;;;5112070;28;20075;-70
2023/05/04 07:40:17;;;;;;;10.70;5.63;;;12.30;99.90;;;;;;5111854;28;20489;-69
2023/05/04 07:42:42;;;;;;;9.45;5.65;;;12.40;99.90;;;;;;5111785;28;20035;-70
2023/05/04 07:45:08;;;;;;;7.70;5.00;;;12.30;99.90;;;;;;5111856;28;20109;-70
2023/05/04 07:47:35;;;;;;;10.07;5.35;;;12.20;99.90;;;;;;5111669;28;20031;-70
2023/05/04 07:50:01;;;;;;;9.93;4.93;;;12.20;99.80;;;;;;5111944;28;20499;-70
2023/05/04 07:52:26;;;;;;;11.68;5.13;;;12.30;99.80;;;;;;5112061;28;20074;-70
2023/05/04 07:54:53;;;;;;;9.00;5.63;;;12.30;99.90;;;;;;5111850;28;20047;-69
2023/05/04 07:57:19;;;;;;;14.77;6.15;;;12.40;99.90;;;;;;5111821;28;20455;-70
2023/05/04 07:59:45;;;;;;;8.23;4.93;;;12.50;99.80;;;;;;5110632;28;20058;-69
2023/05/04 08:02:10;;;;;;;12.55;5.80;;;12.60;99.20;;;;;;5110499;28;20036;-70
2023/05/04 08:04:36;;;;;;;10.70;5.90;;;12.80;99.00;;;;;;5111752;28;20042;-69
2023/05/04 08:07:01;;;;;;;9.18;5.25;;;12.80;99.20;;;;;;5111613;28;20028;-69
2023/05/04 08:09:27;;;;;;;9.25;5.53;;;13.00;98.70;;;;;;5111699;28;20518;-69
2023/05/04 08:11:52;;;;;;;11.13;5.72;;;13.10;98.50;;;;;;5114213;28;20039;-70
2023/05/04 08:14:18;;;;;;;15.40;5.90;;;13.10;98.30;;;;;;5113787;28;20031;-70
2023/05/04 08:16:43;;;;;;;10.05;5.57;;;13.10;97.80;;;;;;5097867;28;20119;-70
2023/05/04 08:19:10;;;;;;;8.57;5.32;;;13.20;97.90;;;;;;5110036;28;20043;-69
2023/05/04 08:21:35;;;;;;;12.02;5.28;;;13.40;97.50;;;;;;5110527;27;20048;-69
2023/05/04 08:24:01;;;;;;;13.73;6.55;;;13.70;97.20;;;;;;5114877;28;20039;-69
2023/05/04 08:26:27;;;;;;;9.10;5.18;;;13.90;97.20;;;;;;5114694;28;20063;-69
2023/05/04 08:28:52;;;;;;;12.32;5.57;;;14.00;95.80;;;;;;5114815;28;20438;-68
2023/05/04 08:31:18;;;;;;;16.05;5.38;;;14.10;95.30;;;;;;5106592;28;20076;-69
2023/05/04 08:33:45;;;;;;;7.22;4.47;;;14.10;95.10;;;;;;5114965;28;20114;-69
2023/05/04 08:36:11;;;;;;;11.02;5.15;;;14.10;94.30;;;;;;5103635;28;20035;-68
2023/05/04 08:38:36;;;;;;;11.65;5.68;;;14.20;93.80;;;;;;5107944;28;20111;-68
2023/05/04 08:41:06;;;;;;;7.68;4.93;;;14.20;93.30;;;;;;5115363;28;20115;-68
2023/05/04 08:43:35;;;;;;;13.00;5.35;;;14.30;93.00;;;;;;5113679;28;20400;-68
2023/05/04 08:46:02;;;;;;;11.18;4.65;;;14.40;93.00;;;;;;5114905;28;20043;-68
2023/05/04 08:48:30;;;;;;;9.55;4.68;;;14.30;92.70;;;;;;5115114;28;20073;-69
2023/05/04 08:50:57;;;;;;;9.65;5.00;;;14.40;92.50;;;;;;5115274;28;20047;-68
2023/05/04 08:53:24;;;;;;;10.25;4.80;;;14.40;92.40;;;;;;5114965;28;20376;-68
2023/05/04 08:55:52;;;;;;;8.02;4.30;;;14.50;92.30;;;;;;5113739;28;20563;-68
2023/05/04 08:58:20;;;;;;;8.70;4.78;;;14.60;92.50;;;;;;5113553;28;20044;-68
2023/05/04 09:00:46;;;;;;;12.05;4.88;;;14.70;92.30;;;;;;5107019;28;20040;-68
2023/05/04 09:03:12;;;;;;;14.43;4.90;;;14.70;91.60;;;;;;5111356;28;20595;-69
2023/05/04 09:05:40;;;;;;;9.85;4.75;;;15.00;91.10;;;;;;5114792;28;20104;-69
2023/05/04 09:08:06;;;;;;;8.80;4.30;;;15.20;90.30;;;;;;5114532;28;20036;-69
2023/05/04 09:10:32;;;;;;;10.82;5.03;;;15.30;90.10;;;;;;5114767;28;20039;-68
2023/05/04 09:12:58;;;;;;;7.63;4.97;;;15.50;89.00;;;;;;5114147;28;20036;-69
2023/05/04 09:15:23;;;;;;;10.00;4.47;;;15.30;86.30;;;;;;5114225;28;20036;-69
2023/05/04 09:18:01;;;;;;;9.40;4.55;;;15.40;88.20;;;;;;5114602;28;20040;-68
2023/05/04 09:20:28;;;;;;;6.50;4.25;;;15.30;88.00;;;;;;5114541;28;20040;-69
2023/05/04 09:23:07;;;;;;;9.05;4.57;;;15.30;86.10;;;;;;5112463;28;20043;-70
2023/05/04 09:25:33;;;;;;;9.30;4.72;;;15.30;83.70;;;;;;5113206;28;20048;-68
2023/05/04 09:27:59;;;;;;;8.35;5.28;;;15.30;84.50;;;;;;5114209;28;20035;-69
2023/05/04 09:30:25;;;;;;;8.30;4.90;;;15.20;84.90;;;;;;5113440;28;20120;-68
2023/05/04 09:32:51;;;;;;;8.85;4.50;;;15.30;84.60;;;;;;5113298;28;20059;-69
2023/05/04 09:35:27;;;;;;;7.57;5.03;;;15.30;84.80;;;;;;5113211;28;20092;-69
2023/05/04 09:37:53;;;;;;;9.65;4.55;;;15.40;85.20;;;;;;5114024;28;20050;-69
2023/05/04 09:40:29;;;;;;;10.48;5.28;;;15.50;86.30;;;;;;5114370;28;20127;-69
2023/05/04 09:42:56;;;;;;;8.45;5.18;;;15.60;83.90;;;;;;5112894;28;20049;-68
2023/05/04 09:45:21;;;;;;;10.55;4.80;;;15.60;84.30;;;;;;5114171;28;20464;-71
2023/05/04 09:47:47;;;;;;;7.97;5.00;;;15.80;84.30;;;;;;5112310;28;20043;-72
2023/05/04 09:50:17;;;;;;;8.75;4.78;;;15.80;83.10;;;;;;5112606;28;20035;-72
2023/05/04 09:52:44;;;;;;;10.82;4.72;;;15.80;82.40;;;;;;5112793;28;20114;-72
2023/05/04 09:55:13;;;;;;;9.63;4.78;;;15.90;82.90;;;;;;5112614;28;20082;-72
2023/05/04 09:57:43;;;;;;;13.65;5.85;;;15.90;82.10;;;;;;5112701;28;20471;-71
2023/05/04 10:00:18;;;;;;;10.10;5.25;;;16.10;82.40;;;;;;5113801;28;20035;-73
2023/05/04 10:02:45;;;;;;;6.93;4.57;;;16.00;80.90;;;;;;5112690;28;20039;-73
2023/05/04 10:05:15;;;;;;;8.70;4.90;;;16.20;81.30;;;;;;5095456;28;20040;-73
2023/05/04 10:07:42;;;;;;;8.00;4.65;;;16.20;80.20;;;;;;5112084;28;20494;-74
2023/05/04 10:10:10;;;;;;;9.80;4.88;;;16.20;80.70;;;;;;5112163;28;20047;-73
2023/05/04 10:12:36;;;;;;;9.63;4.68;;;16.30;81.00;;;;;;5110795;28;20050;-73
2023/05/04 10:15:08;;;;;;;9.45;4.95;;;16.30;79.70;;;;;;5112771;28;20058;-73
2023/05/04 10:17:51;;;;;;;8.75;5.05;;;16.30;80.00;;;;;;5111798;28;20524;-74
2023/05/04 10:20:36;;;;;;;;;;;16.10;79.40;;;;;;5095159;28;20177;-73
2023/05/04 10:23:31;;;;;;;9.05;4.88;;;16.10;78.40;;;;;;5111627;28;19919;-73
2023/05/04 10:26:09;;;;;;;7.60;4.65;;;15.90;79.20;;;;;;5111509;28;20449;-72
2023/05/04 10:28:58;;;;;;;5.78;3.58;;;16.00;79.20;;;;;;5111614;28;20046;-73
2023/05/04 10:31:24;;;;;;;9.65;5.78;;;16.00;79.00;;;;;;5113142;28;20040;-73
2023/05/04 10:33:51;;;;;;;9.95;5.32;;;16.00;79.20;;;;;;5110670;28;20054;-73
2023/05/04 10:36:17;;;;;;;8.73;5.43;;;16.00;79.70;;;;;;5111401;28;20417;-73
2023/05/04 10:38:42;;;;;;;8.27;5.03;;;16.10;79.80;;;;;;5111796;28;20040;-73
2023/05/04 10:41:18;;;;;;;8.45;4.55;;;16.20;79.50;;;;;;5112955;28;20042;-73
2023/05/04 10:43:47;;;;;;;8.35;4.28;;;16.20;78.40;;;;;;5134853;22;20050;-70
2023/05/04 10:46:20;;;;;;;8.23;4.97;;;16.40;78.20;;;;;;5096420;27;20213;-70
2023/05/04 10:48:47;;;;;;;6.18;4.75;;;16.40;77.30;;;;;;5114646;27;20077;-70
2023/05/04 10:51:23;;;;;;;8.40;4.72;;;16.40;77.10;;;;;;5132639;27;20040;-70
2023/05/04 10:53:50;;;;;;;8.38;4.70;;;16.60;76.60;;;;;;5133009;27;20043;-71
2023/05/04 10:56:26;;;;;;;10.68;4.88;;;16.70;77.00;;;;;;5132910;27;20047;-70
2023/05/04 10:58:52;;;;;;;6.50;4.70;;;16.60;75.20;;;;;;5132951;27;20035;-70
2023/05/04 11:01:20;;;;;;;7.05;4.25;;;16.60;74.70;;;;;;5114850;27;20058;-70
2023/05/04 11:03:46;;;;;;;7.97;4.85;;;16.70;75.00;;;;;;5112938;27;20050;-70
2023/05/04 11:06:22;;;;;;;9.23;4.65;;;16.70;74.40;;;;;;5126949;27;20054;-72
2023/05/04 11:09:01;;;;;;;15.07;4.65;;;16.70;72.90;;;;;;5132874;27;20054;-72
2023/05/04 11:11:27;;;;;;;9.93;4.63;;;16.60;72.50;;;;;;5132846;27;20104;-71
2023/05/04 11:13:53;;;;;;;6.18;4.22;;;16.60;72.90;;;;;;5132754;27;20152;-72
2023/05/04 11:16:26;;;;;;;11.65;5.65;;;16.70;72.50;;;;;;5114326;27;20035;-72
2023/05/04 11:18:53;;;;;;;14.02;5.43;;;16.60;71.60;;;;;;5132623;27;20035;-72
2023/05/04 11:21:25;;;;;;;11.45;4.95;;;16.60;71.70;;;;;;5132711;27;20662;-72
2023/05/04 11:23:58;;;;;;;8.77;4.60;;;16.60;72.40;;;;;;5132558;27;20500;-71
2023/05/04 11:26:25;;;;;;;9.50;4.53;;;16.80;70.90;;;;;;5132677;27;20035;-72
2023/05/04 11:28:51;;;;;;;9.38;4.85;;;16.70;69.60;;;;;;5132638;27;20421;-72
2023/05/04 11:31:18;;;;;;;7.22;4.32;;;16.70;69.40;;;;;;5114293;28;20039;-71
2023/05/04 11:33:47;;;;;;;7.63;4.97;;;16.70;69.40;;;;;;5132462;28;20494;-72
2023/05/04 11:36:13;;;;;;;8.63;4.85;;;16.70;68.70;;;;;;5125542;28;20028;-72
2023/05/04 11:38:39;;;;;;;10.40;5.18;;;16.70;68.90;;;;;;5110618;28;20225;-72
2023/05/04 11:41:04;;;;;;;8.18;4.28;;;16.80;69.00;;;;;;5112256;28;20383;-72
2023/05/04 11:43:32;;;;;;;9.98;4.28;;;16.80;68.40;;;;;;5111837;28;20043;-72
2023/05/04 11:45:59;;;;;;;8.70;4.53;;;16.90;68.10;;;;;;5114656;28;20403;-71
2023/05/04 11:48:26;;;;;;;11.02;4.43;;;16.90;67.90;;;;;;5116030;28;20122;-72
2023/05/04 11:50:54;;;;;;;9.85;5.10;;;16.90;67.60;;;;;;5118495;27;20512;-72
2023/05/04 11:53:21;;;;;;;7.15;4.95;;;17.00;67.50;;;;;;5116277;28;20043;-72
2023/05/04 11:55:48;;;;;;;8.05;5.20;;;17.10;67.70;;;;;;5116052;28;20036;-72
2023/05/04 11:58:14;;;;;;;8.80;5.53;;;17.10;66.90;;;;;;5115984;28;20080;-72
2023/05/04 12:00:45;;;;;;;9.57;4.93;;;17.10;67.10;;;;;;5115929;28;20429;-71
2023/05/04 12:03:15;;;;;;;7.68;4.53;;;17.20;66.00;;;;;;5115742;28;20040;-72
2023/05/04 12:05:55;;;;;;;8.05;4.75;;;17.30;66.60;;;;;;5115710;28;20031;-72
2023/05/04 12:08:26;;;;;;;10.70;5.57;;;17.30;65.90;;;;;;5118417;27;20160;-72
2023/05/04 12:11:10;;;;;;;5.72;4.50;;;17.30;66.30;;;;;;5133392;27;20035;-71
2023/05/04 12:13:36;;;;;;;8.65;5.10;;;17.50;67.20;;;;;;5136090;27;20046;-71
2023/05/04 12:16:16;;;;;;;7.57;4.85;;;17.60;65.90;;;;;;5117450;27;20035;-71
2023/05/04 12:18:46;;;;;;;9.48;5.13;;;17.60;64.60;;;;;;5136152;27;20035;-71
2023/05/04 12:21:12;;;;;;;8.25;5.30;;;17.60;64.00;;;;;;5136245;27;20039;-71
2023/05/04 12:23:39;;;;;;;8.43;4.97;;;17.70;63.60;;;;;;5135979;27;20062;-71
2023/05/04 12:26:06;;;;;;;12.50;4.63;;;17.70;62.90;;;;;;5135595;27;20047;-71
2023/05/04 12:28:34;;;;;;;10.07;5.53;;;17.70;62.90;;;;;;5117369;27;20077;-71
2023/05/04 12:31:00;;;;;;;7.00;4.22;;;17.80;62.60;;;;;;5136213;27;20035;-71
2023/05/04 12:33:26;;;;;;;7.90;4.53;;;17.80;62.00;;;;;;5135858;27;20031;-71
2023/05/04 12:35:52;;;;;;;7.88;4.72;;;17.80;61.50;;;;;;5135832;27;20043;-71
2023/05/04 12:38:17;;;;;;;10.73;5.18;;;17.90;61.80;;;;;;5135699;27;20091;-71
2023/05/04 12:40:43;;;;;;;6.40;4.20;;;17.90;61.40;;;;;;5135771;27;20040;-71
2023/05/04 12:43:09;;;;;;;8.20;4.45;;;17.90;61.10;;;;;;5135357;27;20039;-71
2023/05/04 12:45:35;;;;;;;6.72;4.65;;;18.00;61.20;;;;;;5131749;27;20452;-71